Main page
METAR-TAF:

METAR-TAF

Airports :

Federico García Lorca Airport

Granada, Spain

latitude: 37-11N, longitude: 003-47W, elevation: 567 m

Current weather observation

The report was made 22 minutes ago, at 19:00 UTC
Wind 8 kt from the Southwest
Temperature 31°C
Humidity 24%
Pressure 1018 hPa
Visibility 10 km or more
no clouds below 1500 m and no cumulonimbus

METAR: LEGR 181900Z 22008KT CAVOK 31/08 Q1018

Time: 21:22 (19:22 UTC)

Forecast

The report was made 5 hours and 22 minutes ago, at 14:00 UTC
Forecast valid from 18 at 15 UTC to 19 at 15 UTC
Wind 11 kt from the South
Visibility 10 km or more
no clouds below 1500 m and no cumulonimbus
Becoming
from 18 at 20 UTC to 18 at 23 UTC
Wind 3 kt from variable directions
Becoming
from 19 at 08 UTC to 19 at 11 UTC
Wind 10 kt from the South/Southeast

TAF: LEGR 181400Z 1815/1915 17011KT CAVOK TX37/1815Z TN17/1905Z BECMG 1820/1823 VRB03KT BECMG 1908/1911 15010KT

Weather observations and forecasts of more than 4000 airports (METAR and TAF reports).

The available stations are represented by yellow and red dots on the map.

Hover mouse over dot to see the name of the station.

Then click to see weather observations and forecasts.

To change the map : click on the green buttons with a black cross to zoom in, on the green button with a dash to zoom out, or on the green arrows for adjacent maps.


METAR-TAF: